Time;durP1;ratioP1;P1;durP2;ratioP2;P2;SDS_P1;SDS_P2;PMS_P1;PMS_P2;Temp;Humidity;BMP_temperature;BMP_pressure;BME280_temperature;BME280_humidity;BME280_pressure;Samples;Min_cycle;Max_cycle;Signal;HPM_P1;HPM_P2
2022/03/06 00:01:20;;;;;;;24.07;12.03;;;6.00;73.70;;;;;;12889764;23;20170;-81
2022/03/06 00:06:23;;;;;;;34.97;15.83;;;6.00;78.10;;;;;;12866400;23;20178;-80
2022/03/06 00:11:26;;;;;;;27.80;14.73;;;5.10;75.60;;;;;;12912122;23;20200;-81
2022/03/06 00:16:28;;;;;;;36.40;17.23;;;5.30;77.10;;;;;;12894272;23;20190;-81
2022/03/06 00:21:31;;;;;;;14.53;9.67;;;4.30;69.10;;;;;;12920406;23;20638;-81
2022/03/06 00:26:33;;;;;;;13.27;8.87;;;5.90;80.60;;;;;;12938978;23;20166;-81
2022/03/06 00:31:39;;;;;;;22.87;10.33;;;6.80;76.30;;;;;;12893827;23;20174;-81
2022/03/06 00:36:41;;;;;;;12.30;7.83;;;6.60;74.50;;;;;;12894346;23;20499;-81
2022/03/06 00:41:44;;;;;;;17.20;9.23;;;6.60;76.10;;;;;;12937348;23;20162;-81
2022/03/06 00:46:47;;;;;;;11.30;8.67;;;7.30;74.80;;;;;;12893143;23;20174;-81
2022/03/06 00:51:50;;;;;;;16.73;11.00;;;6.70;73.90;;;;;;12893344;23;20551;-81
2022/03/06 00:56:52;;;;;;;12.33;8.60;;;7.40;70.10;;;;;;12937157;23;20186;-81
2022/03/06 01:01:55;;;;;;;9.67;6.30;;;8.20;71.20;;;;;;12868394;23;20236;-81
2022/03/06 01:06:58;;;;;;;12.73;7.30;;;9.60;68.60;;;;;;12893589;23;20217;-81
2022/03/06 01:12:02;;;;;;;14.10;9.80;;;8.50;68.20;;;;;;12891600;23;20174;-80
2022/03/06 01:17:05;;;;;;;11.93;7.73;;;6.00;62.30;;;;;;12937526;23;20166;-81
2022/03/06 01:22:07;;;;;;;12.93;7.40;;;7.30;73.30;;;;;;12891741;23;20178;-81
2022/03/06 01:27:09;;;;;;;15.10;10.47;;;7.40;70.80;;;;;;12866617;23;20170;-81
2022/03/06 01:32:12;;;;;;;14.27;11.20;;;6.50;67.90;;;;;;12919338;23;20494;-81
2022/03/06 01:37:15;;;;;;;15.60;10.53;;;5.80;68.10;;;;;;12866442;23;20248;-81
2022/03/06 01:42:18;;;;;;;10.10;7.23;;;5.70;73.50;;;;;;12919311;23;20193;-81
2022/03/06 01:47:51;;;;;;;45.03;19.13;;;5.70;76.90;;;;;;12937289;23;20162;-81
2022/03/06 01:52:56;;;;;;;13.10;7.50;;;5.50;71.90;;;;;;12580623;23;20190;-81
2022/03/06 01:58:01;;;;;;;13.80;9.47;;;7.60;74.50;;;;;;12603921;23;20522;-81
2022/03/06 02:03:04;;;;;;;16.63;11.37;;;7.70;69.40;;;;;;12579816;23;20253;-81
2022/03/06 02:08:07;;;;;;;15.30;12.27;;;7.00;69.40;;;;;;12579504;23;20528;-81
2022/03/06 02:13:09;;;;;;;16.17;11.27;;;6.80;69.80;;;;;;12604727;23;20595;-81
2022/03/06 02:18:12;;;;;;;17.13;10.50;;;7.20;69.60;;;;;;12579775;23;21072;-81
2022/03/06 02:23:15;;;;;;;17.97;12.23;;;6.10;71.10;;;;;;12579080;23;20249;-81
2022/03/06 02:28:18;;;;;;;17.57;11.63;;;5.20;68.60;;;;;;12761384;23;20625;-81
2022/03/06 02:33:21;;;;;;;16.47;12.20;;;5.40;74.00;;;;;;12917269;23;20186;-81
2022/03/06 02:38:23;;;;;;;11.67;9.83;;;5.40;70.80;;;;;;12917200;23;20178;-81
2022/03/06 02:43:26;;;;;;;13.53;10.03;;;5.30;73.00;;;;;;12864994;23;20174;-81
2022/03/06 02:48:29;;;;;;;14.87;9.83;;;5.70;76.50;;;;;;12917366;23;20162;-81
2022/03/06 02:53:31;;;;;;;14.37;11.20;;;6.20;75.30;;;;;;12916344;23;20178;-81
2022/03/06 02:58:33;;;;;;;17.20;10.77;;;5.90;73.90;;;;;;12933996;23;20502;-81
2022/03/06 03:03:40;;;;;;;11.77;7.27;;;5.70;74.70;;;;;;12916960;23;20166;-81
2022/03/06 03:08:43;;;;;;;18.60;11.40;;;6.10;76.90;;;;;;12889298;23;20261;-81
2022/03/06 03:13:45;;;;;;;13.27;9.60;;;7.00;72.70;;;;;;12915740;23;20198;-81
2022/03/06 03:18:47;;;;;;;12.33;8.80;;;6.70;72.10;;;;;;12916620;23;20164;-81
2022/03/06 03:23:50;;;;;;;13.00;8.73;;;6.50;74.10;;;;;;12888549;23;20232;-81
2022/03/06 03:28:53;;;;;;;11.73;9.53;;;6.10;71.20;;;;;;12865785;23;20652;-81
2022/03/06 03:33:55;;;;;;;13.37;9.27;;;6.30;74.60;;;;;;12889421;23;20190;-81
2022/03/06 03:38:58;;;;;;;12.13;8.27;;;6.40;75.30;;;;;;12915434;23;20248;-81
2022/03/06 03:44:01;;;;;;;13.90;10.33;;;7.20;75.40;;;;;;12917307;23;20170;-81
2022/03/06 03:49:03;;;;;;;9.60;7.27;;;7.80;70.30;;;;;;12888856;23;20174;-81
2022/03/06 03:54:06;;;;;;;28.17;13.63;;;7.70;72.80;;;;;;12889968;23;20179;-81
2022/03/06 03:59:08;;;;;;;17.20;11.50;;;7.50;70.70;;;;;;12916359;23;20162;-81
2022/03/06 04:04:11;;;;;;;23.70;15.43;;;6.90;69.60;;;;;;12916378;23;20225;-81
2022/03/06 04:09:13;;;;;;;20.87;12.57;;;6.00;69.60;;;;;;12924729;23;20576;-81
2022/03/06 04:14:16;;;;;;;17.77;13.43;;;5.70;74.00;;;;;;12916552;23;20186;-81
2022/03/06 04:19:19;;;;;;;19.20;12.60;;;5.50;66.30;;;;;;12888988;23;20723;-81
2022/03/06 04:24:21;;;;;;;18.47;12.10;;;5.50;72.30;;;;;;12915510;23;20641;-81
2022/03/06 04:29:24;;;;;;;13.93;10.43;;;5.10;71.70;;;;;;12915810;23;20703;-81
2022/03/06 04:34:26;;;;;;;13.73;9.90;;;4.60;75.90;;;;;;12915967;23;20193;-81
2022/03/06 04:39:29;;;;;;;14.90;10.80;;;4.20;73.90;;;;;;12924663;23;20167;-81
2022/03/06 04:44:31;;;;;;;13.50;8.50;;;5.20;73.00;;;;;;12915549;23;20193;-81
2022/03/06 04:49:34;;;;;;;12.33;9.23;;;5.70;78.20;;;;;;12916409;23;20167;-81
2022/03/06 04:54:36;;;;;;;11.73;9.33;;;5.40;74.70;;;;;;12919962;23;20248;-81
2022/03/06 04:59:39;;;;;;;9.30;7.27;;;6.40;78.20;;;;;;12890869;23;20240;-81
2022/03/06 05:04:41;;;;;;;13.73;10.03;;;6.40;75.00;;;;;;12892857;23;20221;-81
2022/03/06 05:09:44;;;;;;;16.03;10.70;;;6.30;72.80;;;;;;12829308;23;20282;-81
2022/03/06 05:14:46;;;;;;;7.93;6.47;;;5.40;72.70;;;;;;12872639;23;20553;-81
2022/03/06 05:19:49;;;;;;;17.00;12.03;;;6.50;76.20;;;;;;12856296;23;20502;-81
2022/03/06 05:24:51;;;;;;;9.03;6.83;;;7.10;67.40;;;;;;12855924;23;20563;-81
2022/03/06 05:29:54;;;;;;;13.77;11.17;;;6.70;72.50;;;;;;12854947;23;20179;-81
2022/03/06 05:34:56;;;;;;;11.50;10.07;;;7.00;68.00;;;;;;12854904;23;20190;-81
2022/03/06 05:39:59;;;;;;;12.03;9.53;;;5.70;67.30;;;;;;12851538;23;20171;-81
2022/03/06 05:45:02;;;;;;;8.87;7.97;;;7.40;70.70;;;;;;12851761;23;20641;-81
2022/03/06 05:50:07;;;;;;;10.03;7.50;;;7.30;69.20;;;;;;12855100;23;20171;-81
2022/03/06 05:55:11;;;;;;;11.23;8.07;;;6.80;71.90;;;;;;12853385;23;20226;-81
2022/03/06 06:00:16;;;;;;;12.07;8.67;;;7.10;73.30;;;;;;12828441;23;20560;-81
2022/03/06 06:05:19;;;;;;;13.20;9.93;;;7.10;72.60;;;;;;12854698;23;20167;-81
2022/03/06 06:10:22;;;;;;;15.67;10.70;;;6.50;69.00;;;;;;12901519;23;20202;-81
2022/03/06 06:15:24;;;;;;;13.17;10.17;;;6.10;70.40;;;;;;12865482;23;20190;-81
2022/03/06 06:20:27;;;;;;;10.33;8.63;;;5.90;71.50;;;;;;12915379;23;20479;-81
2022/03/06 06:25:29;;;;;;;7.20;6.40;;;6.40;73.50;;;;;;12886791;23;20228;-81
2022/03/06 06:30:32;;;;;;;11.17;9.23;;;6.70;75.00;;;;;;12889805;23;20166;-81
2022/03/06 06:35:34;;;;;;;12.03;9.83;;;7.00;71.00;;;;;;12933886;23;20534;-81
2022/03/06 06:40:37;;;;;;;13.87;10.87;;;7.00;69.20;;;;;;12914243;23;20175;-81
2022/03/06 06:45:39;;;;;;;11.40;10.20;;;6.80;69.00;;;;;;12888849;23;20515;-81
2022/03/06 06:50:42;;;;;;;12.27;9.07;;;6.10;69.00;;;;;;12918187;23;20495;-81
2022/03/06 06:55:44;;;;;;;9.93;8.37;;;6.40;71.00;;;;;;12916477;23;20232;-81
2022/03/06 07:00:47;;;;;;;11.57;8.60;;;6.70;73.40;;;;;;12866023;23;20554;-81
2022/03/06 07:05:50;;;;;;;12.23;9.63;;;7.10;73.60;;;;;;12917604;23;20557;-81
2022/03/06 07:10:52;;;;;;;7.33;6.20;;;7.90;68.20;;;;;;12915119;23;20594;-81
2022/03/06 07:15:55;;;;;;;8.43;5.53;;;8.80;70.30;;;;;;12916697;23;20234;-80
2022/03/06 07:20:57;;;;;;;9.33;6.50;;;9.10;69.30;;;;;;12890607;23;20175;-81
2022/03/06 07:26:00;;;;;;;7.53;6.60;;;8.90;68.30;;;;;;12920310;23;20696;-80
2022/03/06 07:31:02;;;;;;;14.20;10.87;;;8.90;67.40;;;;;;12912154;23;20221;-81
2022/03/06 07:36:05;;;;;;;13.33;8.47;;;9.00;60.20;;;;;;12888796;23;20200;-81
2022/03/06 07:41:08;;;;;;;15.53;11.27;;;7.70;64.50;;;;;;12916223;23;20508;-81
2022/03/06 07:46:11;;;;;;;13.47;10.87;;;6.80;57.60;;;;;;12934308;23;20170;-81
2022/03/06 07:51:14;;;;;;;6.70;5.80;;;6.90;65.70;;;;;;12889944;23;20171;-81
2022/03/06 07:56:16;;;;;;;11.03;9.63;;;7.40;70.20;;;;;;12916464;23;20186;-81
2022/03/06 08:01:19;;;;;;;11.43;9.73;;;8.20;64.90;;;;;;12934969;23;20163;-82
2022/03/06 08:06:23;;;;;;;8.83;6.67;;;7.60;61.90;;;;;;12915370;23;20237;-81
2022/03/06 08:11:25;;;;;;;12.77;9.83;;;8.20;68.90;;;;;;12915797;23;20509;-81
2022/03/06 08:16:28;;;;;;;11.77;9.00;;;8.40;63.70;;;;;;12887618;23;20391;-81
2022/03/06 08:21:30;;;;;;;11.63;9.47;;;8.10;65.30;;;;;;12887523;23;20174;-81
2022/03/06 08:26:33;;;;;;;6.87;6.10;;;7.30;57.30;;;;;;12916522;23;20175;-82
2022/03/06 08:31:35;;;;;;;11.43;9.43;;;7.40;72.50;;;;;;12937398;23;20170;-82
2022/03/06 08:36:38;;;;;;;12.57;9.73;;;8.10;62.80;;;;;;12919459;23;20195;-81
2022/03/06 08:41:41;;;;;;;16.70;12.27;;;8.00;65.30;;;;;;12925175;23;20168;-81
2022/03/06 08:46:46;;;;;;;9.20;7.23;;;8.30;58.30;;;;;;12920260;23;20256;-81
2022/03/06 08:51:48;;;;;;;8.70;7.30;;;8.30;67.80;;;;;;12891879;23;20204;-81
2022/03/06 08:56:51;;;;;;;13.47;9.70;;;8.00;68.00;;;;;;12891010;23;20241;-82
2022/03/06 09:01:55;;;;;;;10.90;8.87;;;8.20;63.70;;;;;;12892099;23;20487;-82
2022/03/06 09:06:59;;;;;;;8.47;6.73;;;8.10;67.60;;;;;;12891533;23;20572;-81
2022/03/06 09:12:02;;;;;;;7.40;5.90;;;8.20;69.30;;;;;;12892366;23;20162;-82
2022/03/06 09:17:04;;;;;;;9.57;6.93;;;8.70;67.90;;;;;;12866388;23;20261;-82
2022/03/06 09:22:07;;;;;;;15.37;12.87;;;9.20;65.40;;;;;;12918792;23;20170;-82
2022/03/06 09:27:09;;;;;;;22.23;13.70;;;5.40;51.40;;;;;;12935423;23;20587;-81
2022/03/06 09:32:12;;;;;;;6.87;5.60;;;5.90;52.10;;;;;;12919439;23;20550;-81
2022/03/06 09:37:15;;;;;;;5.10;4.57;;;6.80;73.50;;;;;;12890919;23;20256;-81
2022/03/06 09:42:18;;;;;;;16.27;12.33;;;10.30;65.90;;;;;;12936496;23;20637;-82
2022/03/06 09:47:23;;;;;;;8.07;5.63;;;10.00;59.00;;;;;;12893075;23;20162;-82
2022/03/06 09:52:25;;;;;;;6.30;5.13;;;10.70;63.40;;;;;;12936265;23;20166;-81
2022/03/06 09:57:28;;;;;;;10.77;8.77;;;11.40;62.10;;;;;;12890346;23;20202;-81
2022/03/06 10:02:31;;;;;;;6.43;5.10;;;10.70;60.80;;;;;;12936797;23;20168;-81
2022/03/06 10:07:33;;;;;;;14.60;9.80;;;10.20;62.30;;;;;;12891197;23;20532;-81
2022/03/06 10:12:40;;;;;;;13.27;11.27;;;7.70;60.30;;;;;;12866705;23;20407;-81
2022/03/06 10:17:43;;;;;;;9.57;8.30;;;7.30;51.40;;;;;;12865349;23;20766;-81
2022/03/06 10:22:45;;;;;;;18.97;13.17;;;7.40;64.80;;;;;;12890436;23;20642;-80
2022/03/06 10:27:56;;;;;;;18.70;13.63;;;8.20;49.40;;;;;;12908049;23;20216;-80
2022/03/06 10:33:01;;;;;;;18.70;13.00;;;5.30;54.00;;;;;;12902564;23;20482;-80
2022/03/06 10:38:20;;;;;;;19.03;13.60;;;5.70;56.10;;;;;;12916947;23;20259;-79
2022/03/06 10:43:32;;;;;;;12.97;10.37;;;6.90;63.40;;;;;;12935318;23;20162;-80
2022/03/06 10:48:35;;;;;;;6.77;6.07;;;8.20;64.90;;;;;;12889356;23;20173;-80
2022/03/06 10:53:38;;;;;;;8.60;6.90;;;8.90;67.10;;;;;;12916822;23;20175;-80
2022/03/06 10:58:43;;;;;;;13.03;8.57;;;9.00;63.90;;;;;;12916817;23;20213;-80
2022/03/06 11:04:06;;;;;;;11.93;9.20;;;9.60;62.20;;;;;;12916794;23;20566;-79
2022/03/06 11:09:11;;;;;;;12.90;10.47;;;9.90;60.50;;;;;;12926881;23;20300;-80
2022/03/06 11:14:14;;;;;;;11.73;8.93;;;8.60;46.80;;;;;;12889027;23;20232;-83
2022/03/06 11:19:16;;;;;;;9.27;7.67;;;7.70;57.80;;;;;;12916920;23;20213;-79
2022/03/06 11:24:21;;;;;;;12.57;10.37;;;9.60;63.50;;;;;;12887990;23;20244;-79
2022/03/06 11:29:51;;;;;;;9.47;6.93;;;8.00;55.50;;;;;;12911419;23;20167;-80
2022/03/06 11:35:10;;;;;;;11.97;9.10;;;9.50;67.10;;;;;;12928910;23;20183;-80
2022/03/06 11:40:43;;;;;;;11.23;8.80;;;9.40;58.20;;;;;;12922605;23;20232;-80
2022/03/06 11:45:47;;;;;;;13.77;10.83;;;9.10;51.30;;;;;;12916168;23;20212;-80
2022/03/06 11:51:22;;;;;;;12.10;9.83;;;8.20;45.50;;;;;;12891806;23;20170;-79
2022/03/06 11:56:39;;;;;;;10.97;8.70;;;6.20;52.40;;;;;;12865010;23;20660;-80
2022/03/06 12:01:45;;;;;;;13.33;10.00;;;6.30;51.20;;;;;;12892133;23;20169;-81
2022/03/06 12:06:54;;;;;;;14.30;9.60;;;5.90;53.00;;;;;;12895431;23;20167;-80
2022/03/06 12:12:21;;;;;;;15.73;9.57;;;8.60;57.60;;;;;;12922802;23;20216;-79
2022/03/06 12:17:30;;;;;;;14.07;9.50;;;6.80;51.50;;;;;;12894307;23;20221;-81
2022/03/06 12:22:32;;;;;;;10.97;8.10;;;5.00;54.20;;;;;;12896496;23;20240;-81
2022/03/06 12:27:37;;;;;;;10.30;7.53;;;5.50;54.10;;;;;;12939886;23;20618;-82
2022/03/06 12:32:42;;;;;;;8.27;7.03;;;5.40;63.00;;;;;;12896991;23;20167;-82
2022/03/06 12:37:59;;;;;;;10.63;8.23;;;6.50;70.40;;;;;;12897397;23;20186;-82
2022/03/06 12:43:07;;;;;;;9.03;6.40;;;7.10;49.00;;;;;;12921942;23;20162;-81
2022/03/06 12:48:10;;;;;;;12.30;8.23;;;7.60;81.40;;;;;;12915189;23;20815;-82
2022/03/06 12:53:16;;;;;;;11.20;7.60;;;6.20;50.80;;;;;;12872148;23;20236;-82
2022/03/06 12:58:20;;;;;;;16.53;9.43;;;3.50;55.00;;;;;;12897764;23;20252;-82
2022/03/06 13:03:26;;;;;;;9.60;7.37;;;6.70;69.20;;;;;;12897554;23;20551;-84
2022/03/06 13:08:45;;;;;;;8.57;5.63;;;7.60;56.70;;;;;;12938277;23;20198;-83
2022/03/06 13:13:47;;;;;;;7.53;5.67;;;7.70;77.50;;;;;;12941072;23;20508;-83
2022/03/06 13:18:58;;;;;;;12.33;7.97;;;8.40;74.20;;;;;;12937865;23;20213;-83
2022/03/06 13:24:04;;;;;;;17.50;10.17;;;8.30;69.70;;;;;;12935969;23;20630;-82
2022/03/06 13:29:07;;;;;;;6.43;5.37;;;7.70;56.10;;;;;;12904338;23;20236;-81
2022/03/06 13:34:13;;;;;;;11.90;7.30;;;8.30;74.10;;;;;;12901126;23;20171;-80
2022/03/06 13:39:19;;;;;;;12.83;10.30;;;8.30;65.00;;;;;;12920113;23;20191;-81
2022/03/06 13:44:22;;;;;;;7.47;6.30;;;7.50;53.10;;;;;;12907838;23;20174;-81
2022/03/06 13:49:25;;;;;;;15.60;9.73;;;7.60;72.20;;;;;;12918195;23;20174;-84
2022/03/06 13:54:32;;;;;;;16.37;10.50;;;6.30;55.10;;;;;;12937295;22;20562;-81
2022/03/06 13:59:37;;;;;;;7.73;6.27;;;4.20;58.80;;;;;;12947791;23;20186;-79
2022/03/06 14:04:47;;;;;;;18.47;10.40;;;5.40;77.70;;;;;;12927426;23;20170;-81
2022/03/06 14:09:49;;;;;;;16.70;10.90;;;5.40;57.80;;;;;;12884572;23;20225;-80
2022/03/06 14:14:52;;;;;;;14.33;7.13;;;5.30;97.50;;;;;;12948852;23;20216;-81
2022/03/06 14:20:03;;;;;;;10.27;8.17;;;5.40;62.60;;;;;;12922194;23;20525;-83
2022/03/06 14:25:05;;;;;;;15.10;7.97;;;4.80;55.90;;;;;;12891667;23;20178;-81
2022/03/06 14:30:08;;;;;;;10.30;6.20;;;4.50;88.10;;;;;;12920749;23;20166;-83
2022/03/06 14:35:12;;;;;;;13.40;7.73;;;5.30;75.30;;;;;;12919543;23;20509;-82
2022/03/06 14:40:14;;;;;;;14.93;9.13;;;4.90;75.70;;;;;;12921685;23;20171;-81
2022/03/06 14:45:16;;;;;;;12.10;7.80;;;5.90;65.10;;;;;;12923008;23;20166;-81
2022/03/06 14:50:20;;;;;;;10.30;7.00;;;8.10;60.20;;;;;;12921220;23;20181;-82
2022/03/06 14:55:23;;;;;;;18.83;9.70;;;8.80;79.90;;;;;;12892713;23;20559;-80
2022/03/06 15:00:25;;;;;;;10.83;7.73;;;9.00;59.20;;;;;;12919156;23;20166;-82
2022/03/06 15:05:28;;;;;;;13.07;6.73;;;7.00;79.80;;;;;;12918780;23;20544;-81
2022/03/06 15:10:30;;;;;;;12.60;7.30;;;9.30;76.20;;;;;;12917665;23;20190;-80
2022/03/06 15:15:34;;;;;;;12.77;5.97;;;10.20;68.00;;;;;;12915105;23;20163;-81
2022/03/06 15:20:36;;;;;;;10.70;6.33;;;10.20;68.30;;;;;;12913925;23;20166;-81
2022/03/06 15:25:39;;;;;;;10.70;6.00;;;9.50;72.40;;;;;;12860863;23;20184;-81
2022/03/06 15:30:42;;;;;;;9.37;6.30;;;9.60;71.50;;;;;;12914926;23;20825;-81
2022/03/06 15:35:45;;;;;;;12.83;5.90;;;8.20;71.40;;;;;;12914481;23;20567;-81
2022/03/06 15:40:47;;;;;;;21.97;11.23;;;6.60;77.80;;;;;;12912556;23;20195;-81
2022/03/06 15:45:50;;;;;;;14.73;8.23;;;6.40;58.40;;;;;;12913125;23;20208;-81
2022/03/06 15:50:53;;;;;;;11.33;7.10;;;6.50;59.30;;;;;;12912423;23;20561;-81
2022/03/06 15:55:55;;;;;;;16.03;8.03;;;6.90;77.40;;;;;;12912822;23;20185;-81
2022/03/06 16:00:58;;;;;;;7.53;6.30;;;5.20;67.90;;;;;;12886596;23;20212;-81
2022/03/06 16:06:00;;;;;;;19.57;10.27;;;6.50;65.60;;;;;;12885547;23;20573;-82
2022/03/06 16:11:03;;;;;;;18.23;9.50;;;5.80;70.90;;;;;;12887346;23;20776;-81
2022/03/06 16:16:06;;;;;;;17.00;7.63;;;6.70;76.20;;;;;;12886118;23;20776;-81
2022/03/06 16:21:09;;;;;;;19.73;10.33;;;7.60;74.30;;;;;;12930521;23;20166;-79
2022/03/06 16:26:11;;;;;;;13.13;7.90;;;8.20;63.90;;;;;;12912368;23;20220;-79
2022/03/06 16:31:14;;;;;;;8.43;6.10;;;7.50;66.00;;;;;;12883829;23;20228;-81
2022/03/06 16:36:16;;;;;;;10.80;7.50;;;7.60;69.90;;;;;;12885698;23;20195;-81
2022/03/06 16:41:21;;;;;;;10.27;6.60;;;6.40;73.60;;;;;;12912790;23;20175;-79
2022/03/06 16:46:26;;;;;;;34.73;15.93;;;8.00;74.80;;;;;;12914340;23;20234;-79
2022/03/06 16:51:29;;;;;;;7.77;6.40;;;7.30;66.40;;;;;;12918239;23;20521;-79
2022/03/06 16:56:31;;;;;;;15.97;8.20;;;6.90;71.90;;;;;;12919971;23;20191;-79
2022/03/06 17:01:33;;;;;;;10.50;6.07;;;6.00;67.80;;;;;;12916100;23;20483;-79
2022/03/06 17:06:36;;;;;;;11.60;6.13;;;3.20;67.50;;;;;;12863334;23;20204;-81
2022/03/06 17:11:39;;;;;;;17.43;8.97;;;4.10;70.00;;;;;;12891886;23;20264;-81
2022/03/06 17:16:41;;;;;;;12.47;7.40;;;2.40;74.20;;;;;;12919899;23;20190;-81
2022/03/06 17:21:45;;;;;;;12.20;6.47;;;5.60;77.70;;;;;;12918213;23;20167;-80
2022/03/06 17:26:48;;;;;;;9.27;5.97;;;5.20;71.90;;;;;;12915333;23;20197;-81
2022/03/06 17:31:52;;;;;;;10.60;6.67;;;5.40;84.70;;;;;;12936720;23;20505;-82
2022/03/06 17:36:57;;;;;;;9.27;5.47;;;5.80;71.50;;;;;;12935964;23;20186;-80
2022/03/06 17:42:00;;;;;;;14.93;9.17;;;5.20;69.00;;;;;;12865644;23;20178;-80
2022/03/06 17:47:03;;;;;;;9.33;5.67;;;4.50;66.40;;;;;;12891305;23;20170;-80
2022/03/06 17:52:06;;;;;;;7.17;5.27;;;6.50;73.90;;;;;;12889064;23;20174;-81
2022/03/06 17:57:08;;;;;;;7.93;5.63;;;7.60;79.50;;;;;;12916859;23;20187;-81
2022/03/06 18:02:11;;;;;;;8.13;6.00;;;9.10;73.80;;;;;;12906248;23;20557;-79
2022/03/06 18:07:14;;;;;;;8.93;6.17;;;9.60;71.10;;;;;;12913967;23;20922;-79
2022/03/06 18:12:16;;;;;;;8.07;5.90;;;9.70;70.40;;;;;;12913754;23;20656;-79
2022/03/06 18:17:19;;;;;;;13.30;8.87;;;9.30;68.80;;;;;;12885855;23;20228;-80
2022/03/06 18:22:23;;;;;;;11.57;6.70;;;8.40;66.30;;;;;;12912957;23;20880;-79
2022/03/06 18:27:26;;;;;;;26.83;13.67;;;8.30;73.50;;;;;;12914776;23;20236;-79
2022/03/06 18:32:28;;;;;;;7.57;5.67;;;8.80;70.60;;;;;;12916159;23;20221;-82
2022/03/06 18:37:31;;;;;;;13.53;7.50;;;9.50;72.00;;;;;;12864143;23;20197;-82
2022/03/06 18:42:34;;;;;;;6.50;4.80;;;9.80;70.00;;;;;;12916362;23;20242;-82
2022/03/06 18:47:36;;;;;;;5.80;4.90;;;10.10;69.20;;;;;;12908750;23;20698;-82
2022/03/06 18:52:39;;;;;;;8.47;5.40;;;10.20;68.60;;;;;;12889416;23;20232;-82
2022/03/06 18:57:41;;;;;;;7.97;5.83;;;10.40;67.80;;;;;;12916765;23;20186;-80
2022/03/06 19:02:44;;;;;;;8.77;5.23;;;10.40;67.70;;;;;;12864459;23;20171;-80
2022/03/06 19:07:47;;;;;;;7.60;5.27;;;10.60;66.90;;;;;;12914988;23;20647;-81
2022/03/06 19:12:51;;;;;;;10.43;5.83;;;10.50;66.60;;;;;;12934040;23;20168;-83
2022/03/06 19:17:53;;;;;;;9.50;5.27;;;10.20;66.70;;;;;;12915383;23;20509;-84
2022/03/06 19:22:56;;;;;;;27.97;14.83;;;9.70;67.50;;;;;;12887426;23;20225;-83
2022/03/06 19:27:59;;;;;;;49.67;27.30;;;4.90;57.50;;;;;;12933334;23;20216;-82
2022/03/06 19:33:03;;;;;;;15.60;9.00;;;1.30;70.30;;;;;;12864044;23;20178;-83
2022/03/06 19:38:06;;;;;;;23.50;11.70;;;3.20;99.90;;;;;;12915628;23;20190;-82
2022/03/06 19:43:10;;;;;;;28.87;12.40;;;7.20;98.30;;;;;;12889317;23;20162;-80
2022/03/06 19:48:14;;;;;;;27.63;14.40;;;8.70;91.00;;;;;;12914901;23;20170;-80
2022/03/06 19:53:19;;;;;;;24.77;13.37;;;8.60;70.30;;;;;;12933229;23;20479;-80
2022/03/06 19:58:22;;;;;;;31.87;12.90;;;9.20;69.20;;;;;;12932707;23;20186;-80
2022/03/06 20:03:24;;;;;;;25.83;12.43;;;9.30;68.00;;;;;;12930819;23;20166;-80
2022/03/06 20:08:28;;;;;;;26.23;13.60;;;10.00;65.90;;;;;;12884245;23;20194;-79
2022/03/06 20:13:31;;;;;;;20.70;12.00;;;10.30;64.30;;;;;;12913678;23;20216;-81
2022/03/06 20:18:33;;;;;;;21.70;10.73;;;10.50;63.30;;;;;;12912234;23;20195;-80
2022/03/06 20:23:36;;;;;;;18.10;10.50;;;10.60;62.30;;;;;;12913991;23;20178;-80
2022/03/06 20:28:38;;;;;;;25.53;12.83;;;10.00;63.80;;;;;;12888053;23;20178;-80
2022/03/06 20:33:46;;;;;;;23.07;12.00;;;10.40;63.30;;;;;;12932856;23;20170;-80
2022/03/06 20:38:48;;;;;;;39.57;17.20;;;10.20;63.20;;;;;;12931798;23;20241;-80
2022/03/06 20:43:51;;;;;;;23.83;12.17;;;9.50;56.40;;;;;;12915890;23;20159;-80
2022/03/06 20:48:55;;;;;;;21.57;11.43;;;9.80;64.90;;;;;;12916301;23;20233;-79
2022/03/06 20:53:57;;;;;;;22.33;11.07;;;9.80;63.90;;;;;;12915556;23;20204;-81
2022/03/06 20:58:59;;;;;;;29.27;12.40;;;10.10;63.60;;;;;;12888384;22;20202;-79
2022/03/06 21:04:02;;;;;;;17.73;10.20;;;9.60;61.40;;;;;;12915340;23;20166;-80
2022/03/06 21:09:05;;;;;;;26.57;12.50;;;9.60;63.50;;;;;;12888821;23;20194;-80
2022/03/06 21:14:07;;;;;;;18.97;9.77;;;9.40;55.90;;;;;;12914558;23;20205;-80
2022/03/06 21:19:10;;;;;;;22.33;11.83;;;8.90;57.90;;;;;;12888189;23;20253;-80
2022/03/06 21:24:12;;;;;;;14.33;9.67;;;9.50;62.00;;;;;;12929927;23;20170;-80
2022/03/06 21:29:15;;;;;;;18.37;9.80;;;10.20;64.30;;;;;;12885854;23;20224;-80
2022/03/06 21:34:18;;;;;;;19.13;10.80;;;10.30;64.10;;;;;;12915329;23;20170;-81
2022/03/06 21:39:20;;;;;;;14.40;9.13;;;8.90;61.30;;;;;;12917669;23;20532;-80
2022/03/06 21:44:24;;;;;;;17.90;9.63;;;9.90;64.90;;;;;;12918100;23;20189;-81
2022/03/06 21:49:26;;;;;;;33.60;14.27;;;10.30;64.10;;;;;;12918408;23;20224;-81
2022/03/06 21:54:29;;;;;;;17.37;9.80;;;10.10;55.30;;;;;;12917559;23;20202;-80
2022/03/06 21:59:31;;;;;;;22.07;10.30;;;10.20;64.00;;;;;;12917281;23;20257;-80
2022/03/06 22:04:34;;;;;;;14.47;8.90;;;10.20;62.70;;;;;;12917920;23;20189;-84
2022/03/06 22:09:37;;;;;;;15.13;9.07;;;10.40;63.60;;;;;;12914844;23;20248;-79
2022/03/06 22:14:40;;;;;;;15.30;9.63;;;10.70;63.00;;;;;;12889316;23;20634;-80
2022/03/06 22:19:42;;;;;;;17.70;9.53;;;10.80;62.80;;;;;;12917817;23;20263;-81
2022/03/06 22:24:45;;;;;;;15.50;9.83;;;10.90;62.50;;;;;;12890396;23;20548;-81
2022/03/06 22:29:49;;;;;;;16.43;8.67;;;10.80;62.60;;;;;;12888348;23;20199;-82
2022/03/06 22:34:51;;;;;;;17.47;9.80;;;10.90;62.70;;;;;;12891516;23;20194;-81
2022/03/06 22:39:54;;;;;;;14.63;8.07;;;10.80;62.50;;;;;;12917082;23;20191;-82
2022/03/06 22:44:56;;;;;;;17.10;9.27;;;10.60;62.80;;;;;;12890404;23;20501;-81
2022/03/06 22:49:59;;;;;;;18.53;9.67;;;10.60;63.30;;;;;;12916462;23;20219;-82
2022/03/06 22:55:02;;;;;;;14.17;8.57;;;10.70;62.60;;;;;;12888665;23;20191;-82
2022/03/06 23:00:13;;;;;;;16.40;8.30;;;10.60;63.30;;;;;;12916615;23;20187;-84
2022/03/06 23:10:37;;;;;;;15.10;8.67;;;10.50;63.10;;;;;;12917033;23;20190;-81
2022/03/06 23:15:40;;;;;;;13.93;7.97;;;10.70;63.00;;;;;;12890075;23;20304;-83
2022/03/06 23:20:43;;;;;;;13.17;7.97;;;10.90;62.70;;;;;;12890453;23;20190;-82
2022/03/06 23:25:45;;;;;;;14.10;8.57;;;10.90;62.50;;;;;;12890601;23;20167;-81
2022/03/06 23:30:48;;;;;;;16.03;8.10;;;10.90;62.50;;;;;;12917390;23;20175;-81
2022/03/06 23:35:50;;;;;;;21.40;10.33;;;10.60;63.10;;;;;;12890102;23;20175;-80
2022/03/06 23:40:53;;;;;;;14.27;8.40;;;9.40;61.40;;;;;;12916628;23;20528;-80
2022/03/06 23:45:56;;;;;;;13.37;8.07;;;9.70;65.30;;;;;;12916948;23;20170;-80
2022/03/06 23:50:59;;;;;;;17.60;8.73;;;10.10;64.80;;;;;;12916990;23;20171;-80
2022/03/06 23:56:02;;;;;;;16.67;9.03;;;10.20;64.20;;;;;;12915860;23;20174;-80
